Time;durP1;ratioP1;P1;durP2;ratioP2;P2;SDS_P1;SDS_P2;PMS_P1;PMS_P2;Temp;Humidity;BMP_temperature;BMP_pressure;BME280_temperature;BME280_humidity;BME280_pressure;Samples;Min_cycle;Max_cycle;Signal;HPM_P1;HPM_P2
2022/08/07 00:01:40;;;;;;;12.93;12.13;;;;;;;23.71;100.00;44515.06;5092822;28;20191;-62
2022/08/07 00:04:07;;;;;;;12.98;12.23;;;;;;;23.69;100.00;45174.97;5092660;28;20184;-62
2022/08/07 00:06:34;;;;;;;12.13;11.38;;;;;;;23.83;100.00;48827.16;5092648;28;20650;-63
2022/08/07 00:09:02;;;;;;;13.82;12.55;;;;;;;23.72;100.00;40879.97;5092567;28;20668;-63
2022/08/07 00:11:29;;;;;;;12.52;11.93;;;;;;;23.64;100.00;35263.97;5092606;28;20184;-63
2022/08/07 00:13:56;;;;;;;14.68;13.63;;;;;;;23.70;100.00;31641.69;5092112;28;20274;-63
2022/08/07 00:16:23;;;;;;;14.23;13.45;;;;;;;23.65;100.00;28675.75;5092584;28;20202;-63
2022/08/07 00:18:51;;;;;;;13.70;13.00;;;;;;;23.72;100.00;30983.72;5092346;28;20184;-62
2022/08/07 00:21:18;;;;;;;14.93;13.57;;;;;;;23.68;100.00;31311.16;5091993;28;20249;-63
2022/08/07 00:23:45;;;;;;;14.35;13.43;;;;;;;23.72;100.00;34609.13;5092016;28;20184;-62
2022/08/07 00:26:12;;;;;;;13.52;12.82;;;;;;;23.72;100.00;32960.56;5092067;28;20221;-62
2022/08/07 00:28:39;;;;;;;14.48;13.18;;;;;;;23.76;100.00;33952.16;5092100;28;20192;-63
2022/08/07 00:31:09;;;;;;;14.13;12.70;;;;;;;23.60;100.00;29660.31;5092247;28;20184;-63
2022/08/07 00:33:37;;;;;;;14.80;13.68;;;;;;;23.55;100.00;26367.91;5092532;28;20626;-63
2022/08/07 00:36:07;;;;;;;14.52;13.55;;;;;;;23.66;100.00;27689.06;5092217;28;20188;-62
2022/08/07 00:38:36;;;;;;;14.23;13.32;;;;;;;23.74;100.00;29996.81;5091851;28;20238;-63
2022/08/07 00:41:03;;;;;;;14.23;13.43;;;;;;;23.52;100.00;25708.66;5091841;28;20210;-62
2022/08/07 00:43:31;;;;;;;13.70;13.02;;;;;;;23.62;100.00;25713.38;5091945;28;20196;-63
2022/08/07 00:45:59;;;;;;;13.45;12.65;;;;;;;23.83;100.00;25394.38;5092310;28;20606;-63
2022/08/07 00:48:26;;;;;;;13.43;12.60;;;;;;;23.56;100.00;26697.00;5091938;28;20630;-63
2022/08/07 00:50:54;;;;;;;15.18;13.40;;;;;;;23.86;100.00;26053.41;5092079;28;20180;-63
2022/08/07 00:53:22;;;;;;;13.93;13.25;;;;;;;23.87;100.00;23752.13;5092003;28;20206;-62
2022/08/07 00:55:49;;;;;;;13.50;12.90;;;;;;;23.85;100.00;22107.78;5091718;28;20185;-63
2022/08/07 00:58:19;;;;;;;14.80;13.70;;;;;;;23.79;100.00;20791.59;5091683;28;20253;-63
2022/08/07 01:00:46;;;;;;;14.35;13.65;;;;;;;23.78;100.00;18821.38;5091788;28;20258;-63
2022/08/07 01:03:13;;;;;;;14.85;13.82;;;;;;;23.79;100.00;18165.38;5091684;28;20191;-63
2022/08/07 01:05:42;;;;;;;15.13;14.18;;;;;;;23.79;100.00;17180.88;5091888;28;20200;-62
2022/08/07 01:08:09;;;;;;;14.35;13.63;;;;;;;23.82;100.00;17182.06;5091937;28;20241;-62
2022/08/07 01:10:38;;;;;;;15.10;13.75;;;;;;;23.82;100.00;16854.00;5091610;28;20177;-63
2022/08/07 01:13:05;;;;;;;15.00;14.20;;;;;;;23.51;100.00;16516.13;5091297;28;20278;-63
2022/08/07 01:15:34;;;;;;;16.00;14.65;;;;;;;23.72;100.00;14555.63;5091752;28;20544;-63
2022/08/07 01:18:01;;;;;;;15.52;14.38;;;;;;;23.69;100.00;11279.00;5091867;28;20245;-62
2022/08/07 01:20:33;;;;;;;14.75;13.88;;;;;;;23.70;100.00;7352.53;5091492;28;20200;-63
2022/08/07 01:23:02;;;;;;;14.98;14.00;;;;;;;23.53;100.00;4081.81;5091392;28;20242;-64
2022/08/07 01:25:29;;;;;;;15.02;14.18;;;;;;;23.61;100.00;3102.97;5091429;28;20191;-63
2022/08/07 01:27:57;;;;;;;15.43;14.52;;;;;;;23.56;100.00;1143.75;5091388;28;20257;-63
2022/08/07 01:30:27;;;;;;;15.20;14.25;;;;;;;23.32;100.00;-4073.34;5091589;28;20239;-62
2022/08/07 01:32:54;;;;;;;15.35;14.48;;;;;;;23.42;100.00;-5701.75;5092165;28;20210;-63
2022/08/07 01:35:21;;;;;;;14.68;13.88;;;;;;;23.49;100.00;-5376.38;5090336;28;20570;-63
2022/08/07 01:37:48;;;;;;;14.45;13.63;;;;;;;23.34;100.00;-2444.44;5091585;28;20216;-64
2022/08/07 01:40:20;;;;;;;14.82;13.82;;;;;;;23.35;100.00;-5050.34;5091981;28;20730;-63
2022/08/07 01:42:48;;;;;;;14.40;13.68;;;;;;;23.27;100.00;-6352.19;5091420;28;20279;-63
2022/08/07 01:45:15;;;;;;;14.82;14.07;;;;;;;23.31;100.00;-8629.88;5091284;28;20247;-63
2022/08/07 01:47:43;;;;;;;15.85;14.45;;;;;;;23.09;100.00;-9278.31;5091331;28;20192;-63
2022/08/07 01:50:10;;;;;;;15.50;14.45;;;;;;;23.17;100.00;-11553.91;5091541;28;20250;-62
2022/08/07 01:52:39;;;;;;;16.98;15.40;;;;;;;23.16;100.00;-12853.06;5091194;28;20188;-63
2022/08/07 01:55:10;;;;;;;18.15;16.40;;;;;;;23.04;100.00;-13175.94;5091303;28;20185;-63
2022/08/07 01:57:40;;;;;;;17.50;16.23;;;;;;;22.89;100.00;-17066.13;5091061;28;20184;-64
2022/08/07 02:00:10;;;;;;;18.65;16.83;;;;;;;23.01;100.00;-18367.22;5091058;28;20262;-61
2022/08/07 02:02:42;;;;;;;17.70;16.30;;;;;;;22.99;100.00;-18366.84;5092396;28;20184;-63
2022/08/07 02:05:12;;;;;;;17.38;16.08;;;;;;;22.95;100.00;-18365.91;5094747;28;20275;-63
2022/08/07 02:07:43;;;;;;;18.05;16.60;;;;;;;23.00;100.00;-18367.09;5095129;28;20649;-63
2022/08/07 02:10:13;;;;;;;18.15;16.83;;;;;;;23.05;100.00;-18368.16;5094926;28;20183;-62
2022/08/07 02:12:43;;;;;;;18.42;16.95;;;;;;;23.02;100.00;-18367.56;5094608;28;20217;-63
2022/08/07 02:15:11;;;;;;;17.05;15.85;;;;;;;23.03;100.00;-18367.81;5094392;28;20702;-63
2022/08/07 02:17:40;;;;;;;18.48;16.80;;;;;;;23.12;100.00;-18369.94;5094849;28;20667;-63
2022/08/07 02:20:10;;;;;;;18.50;17.08;;;;;;;23.12;100.00;-18369.81;5094614;28;20181;-63
2022/08/07 02:22:40;;;;;;;18.27;16.70;;;;;;;23.14;100.00;-18370.28;5094316;28;20188;-63
2022/08/07 02:25:09;;;;;;;18.48;17.13;;;;;;;23.07;100.00;-18368.75;5094477;28;20181;-62
2022/08/07 02:27:37;;;;;;;19.15;17.77;;;;;;;23.11;100.00;-18369.69;5094456;28;20269;-62
2022/08/07 02:30:07;;;;;;;20.83;18.10;;;;;;;23.22;100.00;-18372.31;5094218;28;20181;-62
2022/08/07 02:32:36;;;;;;;19.52;17.70;;;;;;;23.15;100.00;-18370.66;5094166;28;20195;-63
2022/08/07 02:35:04;;;;;;;18.48;17.13;;;;;;;23.23;100.00;-18372.53;5094440;28;20635;-62
2022/08/07 02:37:33;;;;;;;18.73;17.33;;;;;;;23.19;100.00;-18371.47;5094313;28;20184;-63
2022/08/07 02:40:02;;;;;;;18.05;16.85;;;;;;;23.19;100.00;-18371.47;5094230;28;20253;-63
2022/08/07 02:42:30;;;;;;;18.58;17.13;;;;;;;23.22;100.00;-18372.31;5093957;28;20184;-63
2022/08/07 02:44:57;;;;;;;18.33;16.80;;;;;;;23.07;100.00;-18368.75;5094457;28;20200;-62
2022/08/07 02:47:26;;;;;;;17.48;16.15;;;;;;;23.31;100.00;-18374.22;5094436;28;20213;-63
2022/08/07 02:49:54;;;;;;;17.50;16.10;;;;;;;23.31;100.00;-18374.22;5093936;28;20258;-63
2022/08/07 02:52:26;;;;;;;17.63;16.13;;;;;;;23.35;100.00;-18375.28;5094305;28;20184;-63
2022/08/07 02:54:55;;;;;;;16.67;15.27;;;;;;;23.25;100.00;-18372.78;5094147;28;20195;-63
2022/08/07 02:57:22;;;;;;;17.40;15.85;;;;;;;23.26;100.00;-18373.13;5093776;28;20241;-63
2022/08/07 02:59:51;;;;;;;16.08;15.05;;;;;;;23.29;100.00;-18373.75;5093825;28;20192;-62
2022/08/07 03:02:19;;;;;;;16.17;15.07;;;;;;;23.28;100.00;-18373.50;5094366;28;20207;-62
2022/08/07 03:04:48;;;;;;;15.98;14.88;;;;;;;23.33;100.00;-18374.81;5093833;28;20184;-63
2022/08/07 03:07:16;;;;;;;14.57;13.77;;;;;;;23.30;100.00;-18373.97;5093637;28;20215;-62
2022/08/07 03:09:45;;;;;;;14.88;13.90;;;;;;;23.33;100.00;-18374.69;5093417;28;20283;-63
2022/08/07 03:12:12;;;;;;;15.65;14.40;;;;;;;23.36;100.00;-18375.50;5092243;28;20245;-62
2022/08/07 03:14:41;;;;;;;14.85;13.88;;;;;;;23.44;100.00;-18377.28;5092434;28;20656;-63
2022/08/07 03:17:08;;;;;;;16.02;14.70;;;;;;;23.39;100.00;-18376.09;5093236;28;20249;-63
2022/08/07 03:19:35;;;;;;;15.98;14.85;;;;;;;23.35;100.00;-18375.28;5093452;28;20188;-63
2022/08/07 03:22:05;;;;;;;16.10;14.90;;;;;;;23.43;100.00;-18377.06;5093535;28;20678;-63
2022/08/07 03:24:33;;;;;;;16.95;15.35;;;;;;;23.47;100.00;-18378.00;5093564;28;20184;-62
2022/08/07 03:27:02;;;;;;;17.25;16.10;;;;;;;23.47;100.00;-18378.00;5093106;28;20219;-63
2022/08/07 03:29:34;;;;;;;16.20;14.82;;;;;;;23.52;100.00;-18379.31;5093455;28;20216;-63
2022/08/07 03:32:05;;;;;;;16.13;14.80;;;;;;;23.54;100.00;-18379.66;5091946;28;20185;-64
2022/08/07 03:34:33;;;;;;;16.98;15.68;;;;;;;23.67;100.00;-18382.75;5093318;28;20654;-63
2022/08/07 03:37:03;;;;;;;16.35;15.25;;;;;;;23.73;100.00;-18384.19;5093048;28;20223;-64
2022/08/07 03:39:34;;;;;;;16.25;15.25;;;;;;;23.82;100.00;-18386.31;5093170;28;20621;-63
2022/08/07 03:42:03;;;;;;;17.13;15.18;;;;;;;24.02;100.00;-18391.06;5093139;28;20212;-63
2022/08/07 03:44:30;;;;;;;15.05;13.88;;;;;;;24.13;100.00;-18393.53;5093357;28;20237;-63
2022/08/07 03:46:58;;;;;;;15.70;14.38;;;;;;;24.30;100.00;-18397.56;5092759;28;20184;-64
2022/08/07 03:49:25;;;;;;;14.82;13.98;;;;;;;24.53;100.00;-18403.03;5093042;28;20608;-62
2022/08/07 03:51:53;;;;;;;14.00;13.20;;;;;;;24.77;100.00;-17431.50;5092765;28;20222;-63
2022/08/07 03:54:20;;;;;;;13.77;12.93;;;;;;;24.84;100.00;-15481.56;5092756;28;20184;-62
2022/08/07 03:56:51;;;;;;;13.95;13.13;;;;;;;24.90;100.00;-14180.94;5092628;28;20241;-63
2022/08/07 03:59:18;;;;;;;13.73;12.75;;;;;;;24.98;100.00;-13205.50;5092918;28;20219;-63
2022/08/07 04:01:47;;;;;;;13.40;12.63;;;;;;;25.05;100.00;-11251.78;5092455;28;20203;-64
2022/08/07 04:04:17;;;;;;;12.95;12.15;;;;;;;25.11;100.00;-8318.09;5092686;28;20188;-65
2022/08/07 04:06:45;;;;;;;12.80;11.98;;;;;;;25.22;100.00;-5707.81;5092680;28;20230;-64
2022/08/07 04:09:13;;;;;;;13.35;12.38;;;;;;;25.42;100.00;-1786.69;5092535;28;20180;-63
2022/08/07 04:11:40;;;;;;;12.77;11.98;;;;;;;25.47;100.00;6399.63;5092729;28;20184;-63
2022/08/07 04:14:09;;;;;;;11.25;10.65;;;;;;;25.91;100.00;10674.56;5090883;28;20231;-63
2022/08/07 04:16:37;;;;;;;11.10;10.70;;;;;;;26.09;100.00;20880.84;5092555;28;20655;-63
2022/08/07 04:19:04;;;;;;;11.18;10.57;;;;;;;26.24;100.00;32446.13;5092498;28;20258;-63
2022/08/07 04:21:32;;;;;;;10.80;10.23;;;;;;;26.22;100.00;42053.19;5092104;28;20208;-64
2022/08/07 04:24:00;;;;;;;11.23;10.60;;;;;;;26.50;100.00;54043.66;5092299;28;20241;-62
2022/08/07 04:26:27;;;;;;;10.45;10.05;;;;;;;26.52;100.00;61382.53;5092110;28;20184;-63
2022/08/07 04:28:54;;;;;;;9.75;9.35;;;;;;;26.68;100.00;67415.38;5091955;28;20233;-63
2022/08/07 04:31:25;;;;;;;10.38;9.85;;;;;;;27.00;100.00;87927.97;5091995;28;20187;-62
2022/08/07 04:33:52;;;;;;;10.80;9.60;;;;;;;27.21;100.00;109243.00;5091783;28;20257;-63
2022/08/07 04:36:20;;;;;;;10.38;9.88;;;;;;;27.42;100.00;132749.00;5092045;28;20308;-62
2022/08/07 04:38:47;;;;;;;9.93;9.35;;;;;;;27.50;100.00;152958.06;5091850;28;20245;-63
2022/08/07 04:41:14;;;;;;;9.30;8.90;;;;;;;27.56;100.00;152974.72;5091904;28;20208;-63
2022/08/07 04:43:45;;;;;;;9.80;9.40;;;;;;;27.75;100.00;153020.81;5092039;28;20253;-63
2022/08/07 04:46:18;;;;;;;9.65;9.15;;;;;;;27.68;100.00;153004.13;5091771;28;20187;-62
2022/08/07 04:48:57;;;;;;;9.38;9.00;;;;;;;28.01;100.00;153087.31;5092048;28;20717;-63
2022/08/07 04:51:33;;;;;;;9.35;8.85;;;;;;;28.38;100.00;153180.84;5091706;28;20237;-63
2022/08/07 04:54:05;;;;;;;8.52;7.97;;;;;;;28.63;100.00;153243.56;5091667;28;20274;-62
2022/08/07 04:56:42;;;;;;;8.13;7.75;;;;;;;29.04;100.00;153348.59;5091724;28;20187;-63
2022/08/07 04:59:15;;;;;;;7.75;7.13;;;;;;;28.82;100.00;153293.53;5091635;28;20183;-62
2022/08/07 05:01:47;;;;;;;7.57;7.38;;;;;;;29.19;100.00;153387.06;5091643;28;20265;-63
2022/08/07 05:04:22;;;;;;;7.57;7.28;;;;;;;29.39;100.00;153438.31;5091905;28;20272;-62
2022/08/07 05:06:56;;;;;;;7.18;6.97;;;;;;;29.48;100.00;153461.41;5091534;28;20237;-64
2022/08/07 05:09:30;;;;;;;7.85;7.18;;;;;;;29.30;100.00;153415.25;5091513;28;20188;-63
2022/08/07 05:12:02;;;;;;;8.15;7.85;;;;;;;29.58;100.00;153484.47;5091852;28;20604;-62
2022/08/07 05:14:36;;;;;;;8.18;7.82;;;;;;;29.57;100.00;153483.19;5091436;28;20230;-62
2022/08/07 05:17:04;;;;;;;7.82;7.53;;;;;;;29.36;100.00;153430.66;5091661;28;20180;-63
2022/08/07 05:19:38;;;;;;;7.70;7.18;;;;;;;29.39;100.00;153437.03;5091821;28;20233;-63
2022/08/07 05:22:09;;;;;;;7.28;6.97;;;;;;;29.78;100.00;153536.97;5091747;28;20628;-63
2022/08/07 05:24:38;;;;;;;7.65;7.35;;;;;;;29.53;100.00;153472.94;5090475;28;20627;-63
2022/08/07 05:27:08;;;;;;;7.18;6.97;;;;;;;29.44;100.00;153449.88;5091607;28;20663;-63
2022/08/07 05:29:38;;;;;;;7.93;7.40;;;;;;;29.72;100.00;153521.59;5091306;28;20184;-62
2022/08/07 05:32:07;;;;;;;7.88;7.40;;;;;;;29.98;100.00;153585.69;5090049;28;20654;-62
2022/08/07 05:34:37;;;;;;;7.60;7.30;;;;;;;30.37;100.00;153685.69;5091615;28;20700;-63
2022/08/07 05:37:06;;;;;;;7.28;7.07;;;;;;;30.72;100.00;153775.41;5092195;28;20616;-62
2022/08/07 05:39:35;;;;;;;7.82;7.32;;;;;;;30.89;100.00;153817.78;5095462;28;20325;-63
2022/08/07 05:42:03;;;;;;;7.70;7.32;;;;;;;31.14;100.00;153881.94;5095429;28;20675;-62
2022/08/07 05:44:33;;;;;;;7.97;7.68;;;;;;;31.09;100.00;153869.09;5095535;28;20226;-63
2022/08/07 05:47:01;;;;;;;8.07;7.50;;;;;;;30.75;100.00;153783.16;5095150;28;20233;-62
2022/08/07 05:49:29;;;;;;;8.20;7.72;;;;;;;30.61;100.00;153745.94;5095458;28;20233;-62
2022/08/07 05:52:00;;;;;;;7.82;7.38;;;;;;;30.44;100.00;153702.31;5094941;28;20180;-62
2022/08/07 05:54:27;;;;;;;7.80;7.40;;;;;;;30.81;100.00;153798.50;5094969;28;20181;-62
2022/08/07 05:56:56;;;;;;;7.80;7.55;;;;;;;30.85;100.00;153807.53;5094836;28;20184;-62
2022/08/07 05:59:26;;;;;;;7.95;7.65;;;;;;;30.46;100.00;153707.50;5094863;28;20224;-62
2022/08/07 06:01:54;;;;;;;8.75;8.20;;;;;;;30.04;100.00;153601.09;5094682;28;20295;-62
2022/08/07 06:04:22;;;;;;;8.55;8.25;;;;;;;29.50;100.00;153466.50;5094879;28;20245;-63
2022/08/07 06:06:50;;;;;;;8.52;8.13;;;;;;;29.99;100.00;153588.28;5094673;28;20245;-62
2022/08/07 06:09:18;;;;;;;7.90;7.60;;;;;;;29.82;100.00;153545.94;5094980;28;20188;-62
2022/08/07 06:11:46;;;;;;;8.27;7.88;;;;;;;29.77;100.00;153533.13;5095059;28;20301;-64
2022/08/07 06:14:13;;;;;;;8.52;8.00;;;;;;;29.83;100.00;153548.50;5094813;28;20653;-62
2022/08/07 06:16:44;;;;;;;8.15;7.85;;;;;;;29.87;100.00;153558.81;5094628;28;20180;-63
2022/08/07 06:19:13;;;;;;;8.38;7.93;;;;;;;30.02;100.00;153595.94;5094771;28;20631;-61
2022/08/07 06:21:43;;;;;;;8.90;8.60;;;;;;;29.68;100.00;153511.34;5093339;28;20291;-62
2022/08/07 06:24:10;;;;;;;8.65;8.35;;;;;;;29.70;100.00;153516.50;5094400;28;20185;-63
2022/08/07 06:26:41;;;;;;;9.20;8.77;;;;;;;29.93;100.00;153574.16;5094746;28;20230;-63
2022/08/07 06:29:09;;;;;;;8.93;8.32;;;;;;;30.38;100.00;153689.50;5094286;28;20223;-62
2022/08/07 06:31:36;;;;;;;8.25;7.93;;;;;;;31.01;100.00;153847.31;5094610;28;20176;-62
2022/08/07 06:34:03;;;;;;;10.50;7.85;;;;;;;31.26;100.00;153912.72;5094278;28;20184;-62
2022/08/07 06:36:30;;;;;;;8.85;8.27;;;;;;;30.96;100.00;153834.41;5094581;28;20216;-63
2022/08/07 06:38:57;;;;;;;8.43;7.93;;;;;;;31.23;100.00;153903.75;5094087;28;20181;-62
2022/08/07 06:41:30;;;;;;;7.75;7.30;;;;;;;31.36;100.00;153935.78;5094400;28;20196;-62
2022/08/07 06:44:00;;;;;;;8.23;7.78;;;;;;;31.43;100.00;153953.72;5094275;28;20245;-62
2022/08/07 06:46:28;;;;;;;8.15;7.65;;;;;;;31.99;100.00;154096.19;5094025;28;20187;-62
2022/08/07 06:48:55;;;;;;;7.40;7.10;;;;;;;32.63;100.00;154259.25;5093751;28;20562;-62
2022/08/07 06:51:27;;;;;;;8.80;6.78;;;;;;;31.78;100.00;154042.31;5094259;28;20180;-62
2022/08/07 06:53:59;;;;;;;6.72;6.40;;;;;;;31.81;100.00;154049.97;5094037;28;20289;-62
2022/08/07 06:56:39;;;;;;;6.53;6.13;;;;;;;31.72;100.00;154028.16;5093841;28;20184;-61
2022/08/07 06:59:12;;;;;;;5.75;5.47;;;;;;;32.48;100.00;154220.66;5093758;28;20195;-62
2022/08/07 07:01:41;;;;;;;7.38;7.07;;;;;;;32.63;100.00;154259.25;5093624;28;20261;-61
2022/08/07 07:04:08;;;;;;;7.57;6.97;;;;;;;31.69;100.00;154021.78;5093853;28;20183;-62
2022/08/07 07:06:36;;;;;;;7.07;6.57;;;;;;;31.93;100.00;154082.06;5093818;28;20341;-60
2022/08/07 07:09:21;;;;;;;7.00;6.70;;;;;;;31.89;100.00;154071.78;5093561;28;20265;-61
2022/08/07 07:12:02;;;;;;;7.28;6.78;;;;;;;31.98;100.00;154093.59;5093549;28;20176;-61
2022/08/07 07:14:35;;;;;;;7.38;6.97;;;;;;;31.84;100.00;154058.94;5092090;28;20633;-62
2022/08/07 07:17:06;;;;;;;7.30;7.00;;;;;;;31.91;100.00;154076.91;5093631;28;20665;-62
2022/08/07 07:19:39;;;;;;;7.07;6.68;;;;;;;31.71;100.00;154025.59;5093863;28;20271;-61
2022/08/07 07:22:07;;;;;;;7.65;7.00;;;;;;;31.41;100.00;153948.59;5093152;28;20253;-62
2022/08/07 07:24:35;;;;;;;7.93;7.43;;;;;;;30.90;100.00;153820.31;5093525;28;20703;-62
2022/08/07 07:27:06;;;;;;;7.03;6.63;;;;;;;31.10;100.00;153871.69;5093218;28;20191;-63
2022/08/07 07:29:38;;;;;;;7.43;7.13;;;;;;;30.96;100.00;153835.72;5093979;28;20645;-63
2022/08/07 07:32:08;;;;;;;7.63;7.22;;;;;;;31.36;100.00;153935.78;5093448;28;20180;-61
2022/08/07 07:34:38;;;;;;;7.25;6.60;;;;;;;31.63;100.00;154005.06;5093095;28;20180;-61
2022/08/07 07:37:07;;;;;;;7.25;6.63;;;;;;;31.88;100.00;154069.22;5092969;28;20195;-62
2022/08/07 07:39:36;;;;;;;6.65;6.25;;;;;;;31.19;100.00;153894.72;5092980;28;20221;-61
2022/08/07 07:42:06;;;;;;;6.90;6.60;;;;;;;31.13;100.00;153879.34;5093047;28;20203;-62
2022/08/07 07:44:37;;;;;;;7.13;6.63;;;;;;;30.77;100.00;153788.25;5093148;28;20196;-62
2022/08/07 07:47:06;;;;;;;6.88;6.40;;;;;;;31.05;100.00;153858.84;5092835;28;20434;-63
2022/08/07 07:49:36;;;;;;;7.03;6.63;;;;;;;31.31;100.00;153924.25;5092771;28;20188;-63
2022/08/07 07:52:03;;;;;;;6.80;6.47;;;;;;;31.10;100.00;153870.41;5092629;28;20194;-61
2022/08/07 07:54:31;;;;;;;6.25;5.85;;;;;;;31.34;100.00;153930.66;5093109;28;20198;-62
2022/08/07 07:57:00;;;;;;;8.55;6.18;;;;;;;31.33;100.00;153928.06;5092947;28;20631;-62
2022/08/07 07:59:28;;;;;;;6.38;6.00;;;;;;;31.25;100.00;153908.84;5091304;28;20271;-63
2022/08/07 08:01:59;;;;;;;6.63;6.30;;;;;;;31.27;100.00;153915.22;5092303;28;20184;-62
2022/08/07 08:04:28;;;;;;;7.05;6.45;;;;;;;31.27;100.00;153915.22;5092705;28;20532;-62
2022/08/07 08:06:56;;;;;;;6.53;6.10;;;;;;;31.92;100.00;154078.19;5092692;28;20615;-63
2022/08/07 08:09:26;;;;;;;7.13;6.35;;;;;;;32.53;100.00;154233.50;5092339;28;20215;-62
2022/08/07 08:11:54;;;;;;;6.85;6.32;;;;;;;32.63;100.00;154259.25;5092550;28;20184;-61
2022/08/07 08:14:22;;;;;;;6.40;6.05;;;;;;;32.80;100.00;154301.59;5092084;28;20227;-62
2022/08/07 08:16:51;;;;;;;6.95;6.45;;;;;;;32.51;100.00;154229.66;5092142;28;20242;-62
2022/08/07 08:19:28;;;;;;;6.47;6.00;;;;;;;32.55;100.00;154239.91;5092496;28;20283;-61
2022/08/07 08:27:34;;;;;;;7.30;6.43;;;;;;;32.18;100.00;154146.25;5092448;28;20241;-63
2022/08/07 08:30:04;;;;;;;6.20;5.90;;;;;;;32.47;100.00;154218.09;5092337;28;20210;-62
2022/08/07 08:32:34;;;;;;;6.13;5.90;;;;;;;32.78;100.00;154297.72;5092410;28;20532;-62
2022/08/07 08:35:04;;;;;;;6.72;6.18;;;;;;;33.28;100.00;154424.84;5092178;28;20630;-62
2022/08/07 08:37:35;;;;;;;7.18;6.68;;;;;;;32.61;100.00;154255.38;5092361;28;20230;-62
2022/08/07 08:40:09;;;;;;;7.00;6.50;;;;;;;32.47;100.00;154218.09;5091875;28;20184;-62
2022/08/07 08:42:43;;;;;;;6.15;5.80;;;;;;;32.84;100.00;154311.88;5092085;28;20604;-61
2022/08/07 08:45:18;;;;;;;6.35;5.78;;;;;;;33.02;100.00;154358.03;5092114;28;20257;-62
2022/08/07 08:47:59;;;;;;;5.60;5.40;;;;;;;33.35;100.00;154441.56;5091904;28;20195;-61
2022/08/07 08:50:32;;;;;;;5.60;5.40;;;;;;;32.95;100.00;154340.09;5091790;28;20187;-62
2022/08/07 08:53:09;;;;;;;5.97;5.68;;;;;;;33.07;100.00;154370.88;5092013;28;20565;-61
2022/08/07 08:55:41;;;;;;;5.82;5.40;;;;;;;32.98;100.00;154347.78;5092032;28;20658;-63
2022/08/07 08:58:15;;;;;;;5.18;4.65;;;;;;;32.59;100.00;154248.94;5091928;28;20188;-61
2022/08/07 09:00:48;;;;;;;5.95;5.05;;;;;;;32.86;100.00;154318.25;5091872;28;20187;-62
2022/08/07 09:03:25;;;;;;;5.80;5.40;;;;;;;32.22;100.00;154155.22;5092166;28;20300;-62
2022/08/07 09:06:00;;;;;;;6.30;5.20;;;;;;;31.71;100.00;154025.59;5091875;28;20650;-61
2022/08/07 09:08:38;;;;;;;5.97;5.40;;;;;;;31.67;100.00;154016.63;5091607;28;20191;-63
2022/08/07 09:11:31;;;;;;;5.88;5.47;;;;;;;31.51;100.00;153974.25;5091809;28;20192;-62
2022/08/07 09:14:07;;;;;;;5.00;4.80;;;;;;;30.99;100.00;153842.09;5095429;28;20258;-62
2022/08/07 09:16:48;;;;;;;9.15;5.50;;;;;;;31.60;100.00;153997.41;5096009;28;20206;-62
2022/08/07 09:19:26;;;;;;;5.03;4.72;;;;;;;31.28;100.00;153917.81;5095628;28;20192;-62
2022/08/07 09:22:10;;;;;;;7.53;4.85;;;;;;;31.57;100.00;153989.72;5096038;28;20703;-63
2022/08/07 09:24:47;;;;;;;6.15;5.85;;;;;;;31.20;100.00;153897.28;5095533;28;20188;-62
2022/08/07 09:27:27;;;;;;;5.43;5.03;;;;;;;31.56;100.00;153988.44;5095559;28;20193;-62
2022/08/07 09:30:00;;;;;;;5.18;4.75;;;;;;;31.44;100.00;153957.59;5095777;28;20698;-63
2022/08/07 09:32:41;;;;;;;5.85;5.00;;;;;;;31.53;100.00;153980.66;5095578;28;20256;-62
2022/08/07 09:35:18;;;;;;;5.43;5.00;;;;;;;31.75;100.00;154035.84;5095288;28;20268;-62
2022/08/07 09:37:59;;;;;;;5.30;5.00;;;;;;;31.73;100.00;154030.75;5095465;28;20187;-62
2022/08/07 09:40:32;;;;;;;5.00;4.80;;;;;;;31.21;100.00;153899.88;5095645;28;20665;-62
2022/08/07 09:43:07;;;;;;;5.13;4.88;;;;;;;31.10;100.00;153871.69;5095288;28;20208;-63
2022/08/07 09:45:42;;;;;;;5.18;4.88;;;;;;;31.83;100.00;154056.38;5095471;28;20673;-62
2022/08/07 09:48:22;;;;;;;5.70;5.30;;;;;;;32.17;100.00;154143.69;5095446;28;20616;-62
2022/08/07 09:51:06;;;;;;;5.53;5.13;;;;;;;32.03;100.00;154106.44;5094960;28;20258;-63
2022/08/07 09:53:41;;;;;;;5.53;5.13;;;;;;;31.68;100.00;154017.91;5095005;28;20215;-62
2022/08/07 09:56:39;;;;;;;5.35;4.78;;;;;;;32.10;100.00;154124.44;5095208;28;20630;-62
2022/08/07 09:59:33;;;;;;;5.13;4.80;;;;;;;32.08;100.00;154120.56;5095226;28;20570;-62
2022/08/07 10:02:16;;;;;;;5.82;5.28;;;;;;;32.14;100.00;154135.97;5094684;28;20275;-62
2022/08/07 10:05:03;;;;;;;6.75;5.47;;;;;;;32.45;100.00;154212.97;5094917;28;20222;-62
2022/08/07 10:07:44;;;;;;;5.47;5.07;;;;;;;32.22;100.00;154153.94;5095006;28;20641;-63
2022/08/07 10:10:24;;;;;;;7.97;5.32;;;;;;;32.10;100.00;154124.44;5094889;28;20591;-62
2022/08/07 10:13:11;;;;;;;5.60;5.10;;;;;;;32.03;100.00;154107.72;5094847;28;20580;-62
2022/08/07 10:15:55;;;;;;;5.07;4.88;;;;;;;32.17;100.00;154142.38;5094793;28;20603;-62
2022/08/07 10:18:34;;;;;;;5.18;4.90;;;;;;;32.00;100.00;154100.00;5094638;28;20210;-62
2022/08/07 10:21:31;;;;;;;5.47;4.78;;;;;;;32.18;100.00;154146.25;5094690;28;20188;-62
2022/08/07 10:24:23;;;;;;;5.25;4.85;;;;;;;32.17;100.00;154143.69;5081085;28;20310;-62
2022/08/07 10:27:11;;;;;;;9.57;5.53;;;;;;;32.35;100.00;154188.59;5094082;28;20220;-61
2022/08/07 10:29:53;;;;;;;4.95;4.57;;;;;;;32.77;100.00;154295.16;5094474;28;20184;-62
2022/08/07 10:32:37;;;;;;;4.95;4.65;;;;;;;32.42;100.00;154205.31;5094056;28;20184;-62
2022/08/07 10:35:13;;;;;;;4.60;4.20;;;;;;;32.60;100.00;154251.47;5094128;28;20184;-62
2022/08/07 10:37:55;;;;;;;4.28;3.95;;;;;;;32.25;100.00;154161.66;5094339;28;20324;-62
2022/08/07 10:40:29;;;;;;;4.60;4.20;;;;;;;32.58;100.00;154247.66;5093976;28;20335;-62
2022/08/07 10:43:09;;;;;;;4.90;4.57;;;;;;;32.59;99.10;154250.16;5093927;28;20600;-62
2022/08/07 10:45:38;;;;;;;4.03;3.72;;;;;;;32.67;97.11;154269.50;5094188;28;20630;-62
2022/08/07 10:48:31;;;;;;;3.42;3.33;;;;;;;32.53;93.93;154233.50;5093867;28;20223;-62
2022/08/07 10:51:06;;;;;;;4.13;3.97;;;;;;;32.34;94.30;154184.72;5093908;28;20635;-62
2022/08/07 10:53:50;;;;;;;4.20;3.85;;;;;;;32.48;92.92;154220.66;5093675;28;20179;-62
2022/08/07 10:56:33;;;;;;;3.95;3.75;;;;;;;32.29;91.60;154173.22;5093619;28;20233;-62
2022/08/07 10:59:16;;;;;;;4.05;3.67;;;;;;;32.41;90.38;154204.00;5093704;28;20191;-62
2022/08/07 11:01:53;;;;;;;3.45;3.25;;;;;;;32.52;91.05;154230.94;5093947;28;20295;-62
2022/08/07 11:04:36;;;;;;;3.72;3.53;;;;;;;32.42;91.39;154205.31;5093693;28;20716;-62
2022/08/07 11:07:10;;;;;;;3.70;3.20;;;;;;;32.42;92.63;154205.31;5092177;28;20188;-62
2022/08/07 11:09:44;;;;;;;4.85;2.92;;;;;;;32.37;88.80;154193.75;5093266;28;20567;-63
2022/08/07 11:12:16;;;;;;;3.70;3.40;;;;;;;32.03;88.19;154107.72;5093295;28;20192;-62
2022/08/07 11:14:52;;;;;;;3.35;3.10;;;;;;;32.09;92.46;154121.84;5093181;28;20528;-62
2022/08/07 11:17:30;;;;;;;3.30;3.00;;;;;;;32.22;91.26;154155.22;5093185;28;20184;-61
2022/08/07 11:20:01;;;;;;;4.82;3.50;;;;;;;32.31;89.79;154178.31;5092958;28;20210;-62
2022/08/07 11:22:34;;;;;;;3.65;3.47;;;;;;;32.47;89.16;154219.38;5093306;28;20648;-61
2022/08/07 11:25:09;;;;;;;4.13;3.25;;;;;;;32.53;87.25;154233.50;5092147;28;20261;-62
2022/08/07 11:27:46;;;;;;;3.33;3.13;;;;;;;32.14;87.13;154135.97;5093256;28;20213;-63
2022/08/07 11:30:17;;;;;;;3.45;3.25;;;;;;;32.35;88.40;154187.31;5093391;28;20188;-62
2022/08/07 11:32:51;;;;;;;4.72;3.45;;;;;;;32.13;89.35;154133.41;5093387;28;20241;-62
2022/08/07 11:35:21;;;;;;;2.92;2.83;;;;;;;32.35;88.94;154187.31;5092168;28;20603;-62
2022/08/07 11:38:08;;;;;;;3.53;3.30;;;;;;;32.21;89.92;154151.41;5093300;28;20576;-61
2022/08/07 11:40:49;;;;;;;4.97;3.13;;;;;;;32.19;87.12;154147.53;5093030;28;20278;-63